Time;durP1;ratioP1;P1;durP2;ratioP2;P2;SDS_P1;SDS_P2;PMS_P1;PMS_P2;Temp;Humidity;BMP_temperature;BMP_pressure;BME280_temperature;BME280_humidity;BME280_pressure;Samples;Min_cycle;Max_cycle;Signal;HPM_P1;HPM_P2
2021/09/13 00:02:29;;;;;;;;;;;;;;;;;;10226644;28;19922;-63
2021/09/13 00:07:26;;;;;;;;;;;;;;;;;;10235061;28;19997;-64
2021/09/13 00:12:23;;;;;;;;;;;;;;;;;;10229646;28;20438;-63
2021/09/13 00:17:21;;;;;;;;;;;;;;;;;;10225682;28;19964;-64
2021/09/13 00:22:19;;;;;;;;;;;;;;;;;;10230536;28;20039;-63
2021/09/13 00:27:17;;;;;;;;;;;;;;;;;;10213548;28;19968;-63
2021/09/13 00:32:16;;;;;;;;;;;;;;;;;;10231609;28;20221;-63
2021/09/13 00:37:13;;;;;;;;;;;;;;;;;;10247667;28;19971;-63
2021/09/13 00:42:11;;;;;;;;;;;;;;;;;;10272729;28;19940;-63
2021/09/13 00:47:09;;;;;;;;;;;;;;;;;;10214081;28;20024;-63
2021/09/13 00:52:06;;;;;;;;;;;;;;;;;;10232056;28;20331;-63
2021/09/13 00:57:04;;;;;;;;;;;;;;;;;;10237006;28;20008;-63
2021/09/13 01:02:01;;;;;;;;;;;;;;;;;;10222168;28;20306;-63
2021/09/13 01:06:58;;;;;;;;;;;;;;;;;;10242974;28;20280;-63
2021/09/13 01:11:56;;;;;;;;;;;;;;;;;;10234450;28;19918;-64
2021/09/13 01:16:53;;;;;;;;;;;;;;;;;;10214055;28;19997;-63
2021/09/13 01:21:50;;;;;;;;;;;;;;;;;;10251188;28;19914;-63
2021/09/13 01:26:48;;;;;;;;;;;;;;;;;;10246531;28;19959;-62
2021/09/13 01:31:50;;;;;;;;;;;;;;;;;;10241500;28;19917;-63
2021/09/13 01:36:50;;;;;;;;;;;;;;;;;;10233095;28;20298;-63
2021/09/13 01:41:47;;;;;;;;;;;;;;;;;;10247782;28;19914;-63
2021/09/13 01:46:48;;;;;;;;;;;;;;;;;;10271684;28;19953;-63
2021/09/13 01:51:46;;;;;;;;;;;;;;;;;;10280116;28;19917;-62
2021/09/13 01:56:43;;;;;;;;;;;;;;;;;;10315785;28;19916;-63
2021/09/13 02:01:47;;;;;;;;;;;;;;;;;;10293225;28;19914;-63
2021/09/13 02:06:44;;;;;;;;;;;;;;;;;;10269492;28;19913;-63
2021/09/13 02:11:42;;;;;;;;;;;;;;;;;;10268655;28;20315;-63
2021/09/13 02:16:40;;;;;;;;;;;;;;;;;;10296390;28;19917;-63
2021/09/13 02:21:40;;;;;;;;;;;;;;;;;;10281746;28;19913;-63
2021/09/13 02:26:38;;;;;;;;;;;;;;;;;;10266082;28;19913;-62
2021/09/13 02:31:35;;;;;;;;;;;;;;;;;;10289031;28;19963;-62
2021/09/13 02:36:33;;;;;;;;;;;;;;;;;;10283097;28;19913;-63
2021/09/13 02:41:30;;;;;;;;;;;;;;;;;;10283109;28;19909;-62
2021/09/13 02:46:28;;;;;;;;;;;;;;;;;;10281637;28;19905;-63
2021/09/13 02:51:26;;;;;;;;;;;;;;;;;;10281985;28;19945;-64
2021/09/13 02:56:23;;;;;;;;;;;;;;;;;;10268610;28;19995;-62
2021/09/13 03:01:21;;;;;;;;;;;;;;;;;;10266466;28;20346;-63
2021/09/13 03:06:18;;;;;;;;;;;;;;;;;;10267311;28;19913;-62
2021/09/13 03:11:15;;;;;;;;;;;;;;;;;;10264798;28;20402;-64
2021/09/13 03:16:13;;;;;;;;;;;;;;;;;;10265861;28;19925;-62
2021/09/13 03:21:12;;;;;;;;;;;;;;;;;;10265159;28;19921;-64
2021/09/13 03:26:10;;;;;;;;;;;;;;;;;;10263355;28;19920;-63
2021/09/13 03:31:07;;;;;;;;;;;;;;;;;;10295298;28;19917;-62
2021/09/13 03:36:06;;;;;;;;;;;;;;;;;;10301316;28;20405;-63
2021/09/13 03:41:04;;;;;;;;;;;;;;;;;;10248398;28;19936;-63
2021/09/13 03:46:01;;;;;;;;;;;;;;;;;;10291233;28;20306;-64
2021/09/13 03:51:03;;;;;;;;;;;;;;;;;;10276131;28;19921;-63
2021/09/13 03:56:01;;;;;;;;;;;;;;;;;;10279475;28;19917;-63
2021/09/13 04:00:59;;;;;;;;;;;;;;;;;;10281011;28;20390;-63
2021/09/13 04:05:58;;;;;;;;;;;;;;;;;;10266144;28;20007;-64
2021/09/13 04:16:31;;;;;;;;;;;;;;;;;;10213921;28;19921;-64
2021/09/13 04:21:47;;;;;;;;;;;;;;;;;;10238374;28;19914;-64
2021/09/13 04:27:02;;;;;;;;;;;;;;;;;;10236143;28;19917;-63
2021/09/13 04:32:22;;;;;;;;;;;;;;;;;;10245383;28;20384;-63
2021/09/13 04:37:38;;;;;;;;;;;;;;;;;;10239539;28;19917;-64
2021/09/13 04:42:54;;;;;;;;;;;;;;;;;;10219105;28;20506;-64
2021/09/13 04:48:04;;;;;;;;;;;;;;;;;;10251301;28;19921;-63
2021/09/13 04:53:21;;;;;;;;;;;;;;;;;;10233432;28;19960;-63
2021/09/13 04:58:19;;;;;;;;;;;;;;;;;;10222638;28;20008;-63
2021/09/13 05:03:16;;;;;;;;;;;;;;;;;;10222096;28;19925;-63
2021/09/13 05:08:14;;;;;;;;;;;;;;;;;;10227254;28;19992;-64
2021/09/13 05:13:11;;;;;;;;;;;;;;;;;;10221386;28;19929;-64
2021/09/13 05:18:09;;;;;;;;;;;;;;;;;;10212249;28;19928;-63
2021/09/13 05:23:06;;;;;;;;;;;;;;;;;;10233992;28;19985;-63
2021/09/13 05:28:03;;;;;;;;;;;;;;;;;;10230646;28;20327;-63
2021/09/13 05:33:00;;;;;;;;;;;;;;;;;;10224246;28;19959;-64
2021/09/13 05:37:58;;;;;;;;;;;;;;;;;;10240178;28;20178;-64
2021/09/13 05:42:55;;;;;;;;;;;;;;;;;;10221806;28;20534;-63
2021/09/13 05:47:52;;;;;;;;;;;;;;;;;;10220874;28;19988;-63
2021/09/13 05:52:50;;;;;;;;;;;;;;;;;;10227313;28;19913;-63
2021/09/13 05:57:47;;;;;;;;;;;;;;;;;;10229524;28;20423;-63
2021/09/13 06:02:45;;;;;;;;;;;;;;;;;;10239872;28;19989;-65
2021/09/13 06:07:54;;;;;;;;;;;;;;;;;;10234468;28;19912;-64
2021/09/13 06:12:53;;;;;;;;;;;;;;;;;;10239495;28;19912;-64
2021/09/13 06:17:50;;;;;;;;;;;;;;;;;;10232154;28;20383;-64
2021/09/13 06:22:49;;;;;;;;;;;;;;;;;;10233273;28;20534;-64
2021/09/13 06:27:49;;;;;;;;;;;;;;;;;;10235059;28;20294;-64
2021/09/13 06:32:47;;;;;;;;;;;;;;;;;;10233648;28;19913;-64
2021/09/13 06:37:44;;;;;;;;;;;;;;;;;;10256371;28;19928;-64
2021/09/13 06:42:42;;;;;;;;;;;;;;;;;;10252871;28;19909;-64
2021/09/13 06:47:46;;;;;;;;;;;;;;;;;;10254689;28;19920;-64
2021/09/13 06:52:43;;;;;;;;;;;;;;;;;;10239943;28;19941;-68
2021/09/13 06:57:41;;;;;;;;;;;;;;;;;;10228625;28;19959;-64
2021/09/13 07:02:38;;;;;;;;;;;;;;;;;;10240723;28;20089;-64
2021/09/13 07:07:36;;;;;;;;;;;;;;;;;;10229682;28;19926;-64
2021/09/13 07:12:33;;;;;;;;;;;;;;;;;;10222723;28;19984;-64
2021/09/13 07:17:31;;;;;;;;;;;;;;;;;;10235886;28;20076;-63
2021/09/13 07:22:29;;;;;;;;;;;;;;;;;;10235332;28;19920;-64
2021/09/13 07:27:27;;;;;;;;;;;;;;;;;;10231276;28;19917;-63
2021/09/13 07:32:24;;;;;;;;;;;;;;;;;;10252463;28;19913;-63
2021/09/13 07:37:21;;;;;;;;;;;;;;;;;;10251773;28;20410;-64
2021/09/13 07:42:20;;;;;;;;;;;;;;;;;;10232390;28;19914;-64
2021/09/13 07:47:19;;;;;;;;;;;;;;;;;;10238403;28;20398;-64
2021/09/13 07:52:16;;;;;;;;;;;;;;;;;;10234891;28;21047;-63
2021/09/13 07:57:13;;;;;;;;;;;;;;;;;;10243591;28;19928;-64
2021/09/13 08:02:12;;;;;;;;;;;;;;;;;;10244113;28;20426;-63
2021/09/13 08:07:10;;;;;;;;;;;;;;;;;;10228592;28;19916;-63
2021/09/13 08:12:07;;;;;;;;;;;;;;;;;;10215318;28;20452;-64
2021/09/13 08:17:05;;;;;;;;;;;;;;;;;;10232981;28;20345;-64
2021/09/13 08:23:21;;;;;;;;;;;;;;;;;;10152802;28;52525;-63
2021/09/13 08:28:21;;;;;;;;;;;;;;;;;;10233439;28;19945;-63
2021/09/13 08:33:18;;;;;;;;;;;;;;;;;;10243287;28;19925;-63
2021/09/13 08:38:15;;;;;;;;;;;;;;;;;;10231918;28;19932;-63
2021/09/13 08:43:13;;;;;;;;;;;;;;;;;;10236457;28;19928;-62
2021/09/13 08:53:30;;;;;;;;;;;;;;;;;;10232842;28;19948;-63
2021/09/13 08:58:28;;;;;;;;;;;;;;;;;;10225461;28;19917;-63
2021/09/13 09:03:25;;;;;;;;;;;;;;;;;;10238483;28;19933;-63
2021/09/13 09:08:22;;;;;;;;;;;;;;;;;;10222926;28;19957;-63
2021/09/13 09:13:19;;;;;;;;;;;;;;;;;;10228468;28;20392;-63
2021/09/13 09:18:17;;;;;;;;;;;;;;;;;;10234614;28;19918;-64
2021/09/13 09:23:14;;;;;;;;;;;;;;;;;;10215839;28;19929;-63
2021/09/13 09:28:15;;;;;;;;;;;;;;;;;;10231047;28;19925;-64
2021/09/13 09:33:13;;;;;;;;;;;;;;;;;;10207860;28;19961;-64
2021/09/13 09:40:40;;;;;;;;;;;;;;;;;;10265855;27;19929;-64
2021/09/13 09:45:37;;;;;;;;;;;;;;;;;;10283766;28;19929;-63
2021/09/13 09:50:35;;;;;;;;;;;;;;;;;;10314943;28;20191;-64
2021/09/13 09:55:32;;;;;;;;;;;;;;;;;;10310012;28;19925;-63
2021/09/13 10:00:29;;;;;;;;;;;;;;;;;;10325738;28;19923;-64
2021/09/13 10:05:27;;;;;;;;;;;;;;;;;;10254136;28;19921;-64
2021/09/13 10:10:24;;;;;;;;;;;;;;;;;;10309899;28;20035;-63
2021/09/13 10:15:21;;;;;;;;;;;;;;;;;;10287570;28;19924;-63
2021/09/13 10:20:21;;;;;;;;;;;;;;;;;;10302483;28;20305;-63
2021/09/13 10:25:19;;;;;;;;;;;;;;;;;;10290911;28;19913;-64
2021/09/13 10:30:16;;;;;;;;;;;;;;;;;;10293447;28;20302;-64
2021/09/13 10:35:13;;;;;;;;;;;;;;;;;;10298363;28;20031;-64
2021/09/13 10:40:10;;;;;;;;;;;;;;;;;;10304568;28;19924;-64
2021/09/13 10:45:08;;;;;;;;;;;;;;;;;;10292673;28;20438;-63
2021/09/13 10:50:05;;;;;;;;;;;;;;;;;;10294931;28;19982;-64
2021/09/13 10:55:02;;;;;;;;;;;;;;;;;;10275749;28;19917;-64
2021/09/13 10:59:59;;;;;;;;;;;;;;;;;;10290650;28;19928;-64
2021/09/13 11:04:57;;;;;;;;;;;;;;;;;;10266722;28;19921;-63
2021/09/13 11:09:54;;;;;;;;;;;;;;;;;;10280379;28;19918;-64
2021/09/13 11:14:51;;;;;;;;;;;;;;;;;;10276581;28;19917;-64
2021/09/13 11:19:49;;;;;;;;;;;;;;;;;;10268787;28;20012;-64
2021/09/13 11:24:46;;;;;;;;;;;;;;;;;;10264965;28;19924;-63
2021/09/13 11:29:49;;;;;;;;;;;;;;;;;;10292254;28;20448;-64
2021/09/13 11:34:47;;;;;;;;;;;;;;;;;;10273887;28;19992;-64
2021/09/13 11:39:45;;;;;;;;;;;;;;;;;;10283802;28;19968;-63
2021/09/13 11:44:45;;;;;;;;;;;;;;;;;;10262508;28;19924;-64
2021/09/13 11:49:43;;;;;;;;;;;;;;;;;;10274412;28;19921;-64
2021/09/13 11:54:42;;;;;;;;;;;;;;;;;;10268363;28;19960;-63
2021/09/13 11:59:39;;;;;;;;;;;;;;;;;;10268357;28;20019;-63
2021/09/13 12:04:36;;;;;;;;;;;;;;;;;;10262881;28;19940;-64
2021/09/13 12:09:34;;;;;;;;;;;;;;;;;;10260137;28;19917;-63
2021/09/13 12:14:31;;;;;;;;;;;;;;;;;;10231141;22;19926;-65
2021/09/13 12:19:28;;;;;;;;;;;;;;;;;;10172595;28;20020;-66
2021/09/13 12:24:26;;;;;;;;;;;;;;;;;;10189569;28;20383;-65
2021/09/13 12:29:23;;;;;;;;;;;;;;;;;;10207457;28;20386;-66
2021/09/13 12:34:20;;;;;;;;;;;;;;;;;;10212362;28;19929;-65
2021/09/13 12:39:17;;;;;;;;;;;;;;;;;;10203499;28;19987;-65
2021/09/13 12:44:15;;;;;;;;;;;;;;;;;;10207182;23;19937;-62
2021/09/13 12:49:13;;;;;;;;;;;;;;;;;;10206522;28;19921;-60
2021/09/13 12:54:10;;;;;;;;;;;;;;;;;;10217773;28;20352;-63
2021/09/13 12:59:08;;;;;;;;;;;;;;;;;;10225705;23;20414;-62
2021/09/13 13:04:05;;;;;;;;;;;;;;;;;;10232625;28;19918;-65
2021/09/13 13:09:02;;;;;;;;;;;;;;;;;;10230784;28;19929;-64
2021/09/13 13:14:00;;;;;;;;;;;;;;;;;;10244126;28;20367;-64
2021/09/13 13:18:57;;;;;;;;;;;;;;;;;;10241015;28;19925;-63
2021/09/13 13:23:54;;;;;;;;;;;;;;;;;;10234858;28;20263;-64
2021/09/13 13:28:52;;;;;;;;;;;;;;;;;;10225466;28;21057;-64
2021/09/13 13:33:49;;;;;;;;;;;;;;;;;;10254467;28;19918;-65
2021/09/13 13:38:46;;;;;;;;;;;;;;;;;;10235755;28;19927;-65
2021/09/13 13:43:43;;;;;;;;;;;;;;;;;;10218477;28;20283;-65
2021/09/13 13:48:41;;;;;;;;;;;;;;;;;;10200530;28;19922;-64
2021/09/13 13:53:38;;;;;;;;;;;;;;;;;;10242241;28;20291;-65
2021/09/13 13:58:36;;;;;;;;;;;;;;;;;;10228934;28;19922;-64
2021/09/13 14:03:33;;;;;;;;;;;;;;;;;;10226008;28;20037;-64
2021/09/13 14:08:30;;;;;;;;;;;;;;;;;;10215646;28;20390;-64
2021/09/13 14:13:28;;;;;;;;;;;;;;;;;;10214727;28;19921;-65
2021/09/13 14:18:25;;;;;;;;;;;;;;;;;;10226699;28;20560;-65
2021/09/13 14:23:22;;;;;;;;;;;;;;;;;;10226813;28;19917;-65
2021/09/13 14:28:19;;;;;;;;;;;;;;;;;;10244982;28;20429;-65
2021/09/13 14:33:17;;;;;;;;;;;;;;;;;;10237382;28;19925;-64
2021/09/13 14:38:14;;;;;;;;;;;;;;;;;;10235281;28;19936;-65
2021/09/13 14:43:11;;;;;;;;;;;;;;;;;;10237386;28;19922;-65
2021/09/13 14:48:09;;;;;;;;;;;;;;;;;;10214580;28;19932;-65
2021/09/13 14:53:06;;;;;;;;;;;;;;;;;;10199931;28;19926;-66
2021/09/13 14:58:04;;;;;;;;;;;;;;;;;;10195608;28;19929;-65
2021/09/13 15:03:01;;;;;;;;;;;;;;;;;;10207343;28;19937;-65
2021/09/13 15:07:58;;;;;;;;;;;;;;;;;;10197471;28;20021;-66
2021/09/13 15:12:55;;;;;;;;;;;;;;;;;;10199829;28;20307;-66
2021/09/13 15:17:53;;;;;;;;;;;;;;;;;;10212784;28;20436;-67
2021/09/13 15:22:50;;;;;;;;;;;;;;;;;;10233588;28;19945;-66
2021/09/13 15:27:47;;;;;;;;;;;;;;;;;;10228334;28;20291;-66
2021/09/13 15:32:45;;;;;;;;;;;;;;;;;;10224979;28;19921;-67
2021/09/13 15:37:42;;;;;;;;;;;;;;;;;;10246280;28;19928;-67
2021/09/13 15:42:39;;;;;;;;;;;;;;;;;;10237159;28;19940;-67
2021/09/13 15:47:37;;;;;;;;;;;;;;;;;;10228437;28;19917;-66
2021/09/13 15:52:37;;;;;;;;;;;;;;;;;;10238432;28;19961;-67
2021/09/13 15:57:34;;;;;;;;;;;;;;;;;;10221554;28;19925;-67
2021/09/13 16:02:31;;;;;;;;;;;;;;;;;;10243622;28;19987;-66
2021/09/13 16:07:28;;;;;;;;;;;;;;;;;;10226977;28;19926;-67
2021/09/13 16:12:26;;;;;;;;;;;;;;;;;;10225964;28;19929;-65
2021/09/13 16:17:23;;;;;;;;;;;;;;;;;;10225112;28;19922;-67
2021/09/13 16:22:21;;;;;;;;;;;;;;;;;;10241099;28;19918;-67
2021/09/13 16:27:18;;;;;;;;;;;;;;;;;;10222397;28;19924;-66
2021/09/13 16:32:15;;;;;;;;;;;;;;;;;;10231742;28;19917;-66
2021/09/13 16:37:12;;;;;;;;;;;;;;;;;;10237659;28;19956;-66
2021/09/13 16:42:10;;;;;;;;;;;;;;;;;;10218799;28;19918;-66
2021/09/13 16:47:07;;;;;;;;;;;;;;;;;;10231815;28;19918;-66
2021/09/13 16:52:04;;;;;;;;;;;;;;;;;;10221076;28;20490;-66
2021/09/13 16:57:01;;;;;;;;;;;;;;;;;;10225955;28;20001;-66
2021/09/13 17:01:59;;;;;;;;;;;;;;;;;;10221992;28;19972;-66
2021/09/13 17:06:56;;;;;;;;;;;;;;;;;;10222421;28;19918;-65
2021/09/13 17:11:53;;;;;;;;;;;;;;;;;;10235813;28;20318;-66
2021/09/13 17:16:52;;;;;;;;;;;;;;;;;;10231662;28;19922;-66
2021/09/13 17:21:49;;;;;;;;;;;;;;;;;;10236923;28;19964;-64
2021/09/13 17:26:47;;;;;;;;;;;;;;;;;;10225085;28;19936;-66
2021/09/13 17:31:45;;;;;;;;;;;;;;;;;;10225932;28;19917;-66
2021/09/13 17:36:43;;;;;;;;;;;;;;;;;;10236316;28;19932;-65
2021/09/13 17:41:40;;;;;;;;;;;;;;;;;;10235545;28;19917;-66
2021/09/13 17:46:37;;;;;;;;;;;;;;;;;;10240007;28;20009;-66
2021/09/13 17:51:35;;;;;;;;;;;;;;;;;;10229658;28;19924;-65
2021/09/13 17:56:32;;;;;;;;;;;;;;;;;;10237604;28;19925;-66
2021/09/13 18:01:29;;;;;;;;;;;;;;;;;;10237173;28;19963;-67
2021/09/13 18:06:26;;;;;;;;;;;;;;;;;;10236152;28;19928;-66
2021/09/13 18:11:27;;;;;;;;;;;;;;;;;;10249363;28;19937;-66
2021/09/13 18:16:25;;;;;;;;;;;;;;;;;;10257991;28;20394;-66
2021/09/13 18:21:22;;;;;;;;;;;;;;;;;;10260845;28;20272;-66
2021/09/13 18:26:19;;;;;;;;;;;;;;;;;;10244473;28;19925;-66
2021/09/13 18:31:16;;;;;;;;;;;;;;;;;;10237884;28;19922;-67
2021/09/13 18:36:14;;;;;;;;;;;;;;;;;;10253406;28;20302;-64
2021/09/13 18:41:11;;;;;;;;;;;;;;;;;;10239974;28;19928;-66
2021/09/13 18:46:08;;;;;;;;;;;;;;;;;;10243110;28;19922;-66
2021/09/13 18:51:06;;;;;;;;;;;;;;;;;;10250673;28;20416;-65
2021/09/13 18:56:04;;;;;;;;;;;;;;;;;;10246932;28;20818;-65
2021/09/13 19:01:01;;;;;;;;;;;;;;;;;;10236670;28;19917;-65
2021/09/13 19:05:59;;;;;;;;;;;;;;;;;;10240583;28;20020;-65
2021/09/13 19:10:58;;;;;;;;;;;;;;;;;;10244162;28;20421;-64
2021/09/13 19:15:55;;;;;;;;;;;;;;;;;;10243642;28;20296;-64
2021/09/13 19:20:53;;;;;;;;;;;;;;;;;;10238612;28;19932;-63
2021/09/13 19:25:52;;;;;;;;;;;;;;;;;;10233381;28;19922;-65
2021/09/13 19:30:50;;;;;;;;;;;;;;;;;;10230368;28;20325;-64
2021/09/13 19:35:47;;;;;;;;;;;;;;;;;;10231483;28;20573;-64
2021/09/13 19:40:45;;;;;;;;;;;;;;;;;;10232834;28;19929;-65
2021/09/13 19:45:43;;;;;;;;;;;;;;;;;;10244297;28;20164;-65
2021/09/13 19:50:40;;;;;;;;;;;;;;;;;;10235821;28;20387;-64
2021/09/13 19:55:37;;;;;;;;;;;;;;;;;;10235372;28;19929;-63
2021/09/13 20:00:35;;;;;;;;;;;;;;;;;;10242902;28;20284;-64
2021/09/13 20:05:33;;;;;;;;;;;;;;;;;;10212277;28;19983;-65
2021/09/13 20:10:30;;;;;;;;;;;;;;;;;;10224556;28;19921;-65
2021/09/13 20:15:27;;;;;;;;;;;;;;;;;;10229266;28;20023;-65
2021/09/13 20:20:25;;;;;;;;;;;;;;;;;;10238634;28;19970;-64
2021/09/13 20:25:22;;;;;;;;;;;;;;;;;;10225993;28;20371;-64
2021/09/13 20:30:19;;;;;;;;;;;;;;;;;;10238358;28;19918;-64
2021/09/13 20:35:16;;;;;;;;;;;;;;;;;;10235480;28;19933;-64
2021/09/13 20:40:14;;;;;;;;;;;;;;;;;;10239746;28;19936;-64
2021/09/13 20:45:11;;;;;;;;;;;;;;;;;;10246059;28;19981;-64
2021/09/13 20:50:08;;;;;;;;;;;;;;;;;;10238624;28;19972;-64
2021/09/13 20:55:06;;;;;;;;;;;;;;;;;;10247589;28;19940;-65
2021/09/13 21:00:04;;;;;;;;;;;;;;;;;;10260719;28;19922;-65
2021/09/13 21:05:02;;;;;;;;;;;;;;;;;;10244157;28;19917;-64
2021/09/13 21:10:01;;;;;;;;;;;;;;;;;;10251190;28;20081;-64
2021/09/13 21:14:58;;;;;;;;;;;;;;;;;;10249999;28;19924;-66
2021/09/13 21:19:56;;;;;;;;;;;;;;;;;;10242920;28;19948;-64
2021/09/13 21:24:53;;;;;;;;;;;;;;;;;;10242128;28;19937;-65
2021/09/13 21:29:52;;;;;;;;;;;;;;;;;;10226678;28;20279;-64
2021/09/13 21:34:51;;;;;;;;;;;;;;;;;;10232888;28;19928;-65
2021/09/13 21:39:48;;;;;;;;;;;;;;;;;;10224227;28;19928;-65
2021/09/13 21:44:46;;;;;;;;;;;;;;;;;;10237547;28;19918;-65
2021/09/13 21:49:43;;;;;;;;;;;;;;;;;;10193481;28;20016;-65
2021/09/13 21:54:40;;;;;;;;;;;;;;;;;;10192870;28;21064;-63
2021/09/13 21:59:38;;;;;;;;;;;;;;;;;;10197522;28;19964;-62
2021/09/13 22:04:35;;;;;;;;;;;;;;;;;;10200419;28;19925;-64
2021/09/13 22:09:32;;;;;;;;;;;;;;;;;;10190487;28;19925;-64
2021/09/13 22:14:30;;;;;;;;;;;;;;;;;;10206748;28;20342;-64
2021/09/13 22:19:27;;;;;;;;;;;;;;;;;;10197922;28;20462;-63
2021/09/13 22:24:24;;;;;;;;;;;;;;;;;;10198797;28;19926;-63
2021/09/13 22:29:22;;;;;;;;;;;;;;;;;;10193765;28;20822;-64
2021/09/13 22:34:19;;;;;;;;;;;;;;;;;;10192699;28;19940;-65
2021/09/13 22:39:16;;;;;;;;;;;;;;;;;;10221305;28;19997;-63
2021/09/13 22:44:13;;;;;;;;;;;;;;;;;;10219666;28;20017;-63
2021/09/13 22:49:11;;;;;;;;;;;;;;;;;;10238058;28;19922;-64
2021/09/13 22:54:08;;;;;;;;;;;;;;;;;;10239496;28;20274;-63
2021/09/13 22:59:05;;;;;;;;;;;;;;;;;;10237437;28;19948;-63
2021/09/13 23:04:03;;;;;;;;;;;;;;;;;;10237581;28;19921;-63
2021/09/13 23:09:01;;;;;;;;;;;;;;;;;;10231487;28;20283;-63
2021/09/13 23:13:58;;;;;;;;;;;;;;;;;;10252839;28;19921;-63
2021/09/13 23:18:56;;;;;;;;;;;;;;;;;;10255350;28;20279;-63
2021/09/13 23:23:54;;;;;;;;;;;;;;;;;;10240323;28;20379;-63
2021/09/13 23:28:52;;;;;;;;;;;;;;;;;;10242624;28;20379;-64
2021/09/13 23:33:50;;;;;;;;;;;;;;;;;;10250343;28;20311;-64
2021/09/13 23:38:48;;;;;;;;;;;;;;;;;;10231262;28;19921;-63
2021/09/13 23:43:45;;;;;;;;;;;;;;;;;;10242659;28;20306;-64
2021/09/13 23:48:43;;;;;;;;;;;;;;;;;;10253105;28;19996;-63
2021/09/13 23:53:42;;;;;;;;;;;;;;;;;;10227967;28;20346;-65
2021/09/13 23:58:39;;;;;;;;;;;;;;;;;;10250424;28;19991;-64
